Time;durP1;ratioP1;P1;durP2;ratioP2;P2;SDS_P1;SDS_P2;PMS_P1;PMS_P2;Temp;Humidity;BMP_temperature;BMP_pressure;BME280_temperature;BME280_humidity;BME280_pressure;Samples;Min_cycle;Max_cycle;Signal;HPM_P1;HPM_P2
2022/04/17 00:01:29;;;;;;;13.00;7.93;;;;;;;;;;5027338;28;20386;-64
2022/04/17 00:03:54;;;;;;;13.70;7.82;;;;;;;;;;5040478;28;20115;-64
2022/04/17 00:06:20;;;;;;;13.75;7.40;;;;;;;;;;5050061;28;20455;-63
2022/04/17 00:08:45;;;;;;;14.32;7.88;;;;;;;;;;5042180;28;20040;-64
2022/04/17 00:11:11;;;;;;;12.15;7.57;;;;;;;;;;5046815;28;20108;-63
2022/04/17 00:13:36;;;;;;;14.40;8.10;;;;;;;;;;5050025;28;20047;-63
2022/04/17 00:16:02;;;;;;;12.43;7.00;;;;;;;;;;5036489;28;20041;-63
2022/04/17 00:18:27;;;;;;;15.13;7.57;;;;;;;;;;5046264;28;20069;-63
2022/04/17 00:20:53;;;;;;;13.38;7.30;;;;;;;;;;5034600;28;20033;-63
2022/04/17 00:23:18;;;;;;;11.82;7.20;;;;;;;;;;5044838;28;20044;-63
2022/04/17 00:25:44;;;;;;;12.50;7.35;;;;;;;;;;5039818;28;20037;-63
2022/04/17 00:28:10;;;;;;;13.40;7.40;;;;;;;;;;5029996;28;20048;-63
2022/04/17 00:30:35;;;;;;;14.40;7.40;;;;;;;;;;5036239;28;20037;-63
2022/04/17 00:33:01;;;;;;;11.80;6.97;;;;;;;;;;5025627;28;20048;-63
2022/04/17 00:35:26;;;;;;;12.68;7.20;;;;;;;;;;5017373;28;20041;-64
2022/04/17 00:37:52;;;;;;;11.68;7.20;;;;;;;;;;5033189;28;20387;-64
2022/04/17 00:40:17;;;;;;;13.00;7.35;;;;;;;;;;5028519;28;20037;-64
2022/04/17 00:42:42;;;;;;;11.77;7.22;;;;;;;;;;5034768;28;20498;-64
2022/04/17 00:45:09;;;;;;;11.88;6.88;;;;;;;;;;5017898;28;20095;-63
2022/04/17 00:47:35;;;;;;;12.23;6.95;;;;;;;;;;5024643;28;20040;-64
2022/04/17 00:50:00;;;;;;;11.18;7.20;;;;;;;;;;5023773;28;20038;-63
2022/04/17 00:52:26;;;;;;;10.93;6.50;;;;;;;;;;5019227;28;20041;-64
2022/04/17 00:54:52;;;;;;;13.80;7.25;;;;;;;;;;5020978;28;20037;-63
2022/04/17 00:57:17;;;;;;;11.43;6.85;;;;;;;;;;5041262;28;20059;-64
2022/04/17 00:59:44;;;;;;;13.10;6.72;;;;;;;;;;5034739;28;20037;-63
2022/04/17 01:02:10;;;;;;;14.85;7.07;;;;;;;;;;5029365;28;20025;-63
2022/04/17 01:04:36;;;;;;;12.30;7.00;;;;;;;;;;5015026;28;20033;-64
2022/04/17 01:07:03;;;;;;;11.43;6.80;;;;;;;;;;5011752;28;20219;-64
2022/04/17 01:09:29;;;;;;;12.00;6.95;;;;;;;;;;5017406;28;20116;-63
2022/04/17 01:11:56;;;;;;;12.23;6.70;;;;;;;;;;5039184;28;20545;-64
2022/04/17 01:14:21;;;;;;;12.23;7.05;;;;;;;;;;5043502;28;20025;-64
2022/04/17 01:16:47;;;;;;;11.27;7.10;;;;;;;;;;5013925;28;20120;-64
2022/04/17 01:19:13;;;;;;;11.15;6.72;;;;;;;;;;5034997;28;20155;-63
2022/04/17 01:21:39;;;;;;;13.60;7.15;;;;;;;;;;5033466;28;20058;-63
2022/04/17 01:26:57;;;;;;;12.70;7.32;;;;;;;;;;5013214;28;20489;-64
2022/04/17 01:29:32;;;;;;;12.07;6.97;;;;;;;;;;5041508;28;20474;-64
2022/04/17 01:32:06;;;;;;;10.63;6.72;;;;;;;;;;5043169;28;20066;-64
2022/04/17 01:34:31;;;;;;;10.65;6.60;;;;;;;;;;5026707;28;20062;-64
2022/04/17 01:36:57;;;;;;;15.07;7.30;;;;;;;;;;5032418;28;20460;-63
2022/04/17 01:39:23;;;;;;;11.85;6.85;;;;;;;;;;5025870;28;20033;-64
2022/04/17 01:41:50;;;;;;;11.38;6.72;;;;;;;;;;5037127;28;20048;-63
2022/04/17 01:44:18;;;;;;;14.20;6.82;;;;;;;;;;5018458;28;20029;-63
2022/04/17 01:46:45;;;;;;;12.93;7.10;;;;;;;;;;5031561;28;20036;-64
2022/04/17 01:49:11;;;;;;;12.63;7.53;;;;;;;;;;5024798;28;20120;-64
2022/04/17 01:51:38;;;;;;;14.23;7.35;;;;;;;;;;5034272;28;20152;-63
2022/04/17 01:54:09;;;;;;;12.23;7.38;;;;;;;;;;5033978;28;20029;-64
2022/04/17 01:56:36;;;;;;;12.95;7.20;;;;;;;;;;5018217;28;20040;-63
2022/04/17 01:59:02;;;;;;;13.13;7.85;;;;;;;;;;5040176;28;20376;-63
2022/04/17 02:01:27;;;;;;;12.90;7.95;;;;;;;;;;5033480;28;20131;-63
2022/04/17 02:03:53;;;;;;;13.45;7.90;;;;;;;;;;5032489;28;20463;-63
2022/04/17 02:06:18;;;;;;;12.95;7.88;;;;;;;;;;5021407;28;20062;-64
2022/04/17 02:08:44;;;;;;;14.18;8.00;;;;;;;;;;5021333;28;20088;-64
2022/04/17 02:11:10;;;;;;;13.93;8.15;;;;;;;;;;5016215;28;20091;-63
2022/04/17 02:13:36;;;;;;;13.30;7.82;;;;;;;;;;5053445;28;20033;-64
2022/04/17 02:16:06;;;;;;;11.77;7.40;;;;;;;;;;5041871;28;20036;-64
2022/04/17 02:18:32;;;;;;;12.73;7.70;;;;;;;;;;5048022;28;20108;-64
2022/04/17 02:20:57;;;;;;;13.50;7.72;;;;;;;;;;5036818;28;20137;-64
2022/04/17 02:23:22;;;;;;;14.73;8.02;;;;;;;;;;5041294;28;20049;-64
2022/04/17 02:25:48;;;;;;;18.33;7.93;;;;;;;;;;5038877;28;20029;-64
2022/04/17 02:28:14;;;;;;;17.02;8.43;;;;;;;;;;5040759;28;20031;-63
2022/04/17 02:30:40;;;;;;;15.27;8.18;;;;;;;;;;5022346;28;20396;-64
2022/04/17 02:33:06;;;;;;;12.93;7.93;;;;;;;;;;5047749;28;20033;-63
2022/04/17 02:35:31;;;;;;;12.13;7.50;;;;;;;;;;5022169;28;20021;-63
2022/04/17 02:37:56;;;;;;;13.40;8.07;;;;;;;;;;5027499;28;20037;-64
2022/04/17 02:40:22;;;;;;;16.63;8.30;;;;;;;;;;5048190;28;20033;-64
2022/04/17 02:42:53;;;;;;;11.52;7.63;;;;;;;;;;5037583;28;20034;-64
2022/04/17 02:45:21;;;;;;;13.75;8.05;;;;;;;;;;5029744;28;20372;-64
2022/04/17 02:47:48;;;;;;;13.55;7.60;;;;;;;;;;5037622;28;20440;-64
2022/04/17 02:50:15;;;;;;;13.95;7.65;;;;;;;;;;5048541;28;20055;-64
2022/04/17 02:52:42;;;;;;;14.43;7.97;;;;;;;;;;5033092;28;20087;-64
2022/04/17 02:55:08;;;;;;;13.45;8.18;;;;;;;;;;5030865;28;20037;-64
2022/04/17 02:57:33;;;;;;;14.77;8.38;;;;;;;;;;5033841;28;20091;-64
2022/04/17 02:59:59;;;;;;;13.07;8.23;;;;;;;;;;5022866;28;20104;-64
2022/04/17 03:07:54;;;;;;;15.98;8.10;;;;;;;;;;5028225;28;20387;-64
2022/04/17 03:10:19;;;;;;;13.70;7.95;;;;;;;;;;5014475;28;20026;-64
2022/04/17 03:12:45;;;;;;;12.68;8.10;;;;;;;;;;5016317;28;20025;-64
2022/04/17 03:15:11;;;;;;;14.43;8.13;;;;;;;;;;5029144;28;20034;-63
2022/04/17 03:17:37;;;;;;;14.38;7.80;;;;;;;;;;5041646;28;20033;-64
2022/04/17 03:20:04;;;;;;;13.68;8.18;;;;;;;;;;5050342;28;20415;-63
2022/04/17 03:22:30;;;;;;;15.38;8.07;;;;;;;;;;5029608;28;20411;-64
2022/04/17 03:24:55;;;;;;;12.73;7.82;;;;;;;;;;5040708;28;20117;-64
2022/04/17 03:27:22;;;;;;;13.75;8.02;;;;;;;;;;5021286;28;20344;-63
2022/04/17 03:29:48;;;;;;;15.70;7.97;;;;;;;;;;5028419;28;20038;-64
2022/04/17 03:32:13;;;;;;;13.93;7.78;;;;;;;;;;5019137;28;20037;-64
2022/04/17 03:34:39;;;;;;;20.10;8.38;;;;;;;;;;5029074;28;20056;-63
2022/04/17 03:37:05;;;;;;;12.77;7.93;;;;;;;;;;5017841;28;20028;-64
2022/04/17 03:39:31;;;;;;;13.82;7.78;;;;;;;;;;5038769;28;20371;-63
2022/04/17 03:41:57;;;;;;;13.85;8.55;;;;;;;;;;5039468;28;20042;-63
2022/04/17 03:44:22;;;;;;;13.77;8.30;;;;;;;;;;5032805;28;20037;-64
2022/04/17 03:46:47;;;;;;;15.38;7.90;;;;;;;;;;5027002;28;20045;-64
2022/04/17 03:49:13;;;;;;;17.95;8.63;;;;;;;;;;5032112;28;20572;-63
2022/04/17 03:51:39;;;;;;;16.35;8.52;;;;;;;;;;5021556;28;20029;-64
2022/04/17 03:54:04;;;;;;;14.13;8.20;;;;;;;;;;5029533;28;20024;-63
2022/04/17 03:56:30;;;;;;;15.00;8.50;;;;;;;;;;5045810;28;20025;-64
2022/04/17 03:58:55;;;;;;;14.63;8.15;;;;;;;;;;5050717;28;20037;-64
2022/04/17 04:01:21;;;;;;;14.75;8.52;;;;;;;;;;5041382;28;20295;-64
2022/04/17 04:03:47;;;;;;;16.25;8.15;;;;;;;;;;5051084;28;20098;-64
2022/04/17 04:06:13;;;;;;;14.75;8.65;;;;;;;;;;5028401;28;20482;-64
2022/04/17 04:08:38;;;;;;;17.25;9.32;;;;;;;;;;5031808;28;20038;-64
2022/04/17 04:11:05;;;;;;;15.25;9.43;;;;;;;;;;5021738;28;20037;-64
2022/04/17 04:13:32;;;;;;;17.00;8.77;;;;;;;;;;5044457;28;20119;-64
2022/04/17 04:15:58;;;;;;;17.05;9.00;;;;;;;;;;5026493;28;20049;-64
2022/04/17 04:18:23;;;;;;;16.23;9.80;;;;;;;;;;5042783;28;20064;-64
2022/04/17 04:20:49;;;;;;;16.13;8.63;;;;;;;;;;5039852;28;20150;-63
2022/04/17 04:23:14;;;;;;;16.42;8.55;;;;;;;;;;5041251;28;20274;-63
2022/04/17 04:25:40;;;;;;;15.77;9.02;;;;;;;;;;5030578;28;20514;-64
2022/04/17 04:30:49;;;;;;;15.27;8.90;;;;;;;;;;5046112;28;20094;-63
2022/04/17 04:33:14;;;;;;;16.30;8.98;;;;;;;;;;5027800;28;20041;-64
2022/04/17 04:35:40;;;;;;;17.15;9.13;;;;;;;;;;5049294;28;20490;-64
2022/04/17 04:38:06;;;;;;;15.38;9.48;;;;;;;;;;5043358;28;20400;-63
2022/04/17 04:40:32;;;;;;;19.08;9.88;;;;;;;;;;5033122;28;20030;-63
2022/04/17 04:43:02;;;;;;;15.32;9.15;;;;;;;;;;5022172;28;20030;-63
2022/04/17 04:48:12;;;;;;;19.38;9.25;;;;;;;;;;5011623;28;20111;-64
2022/04/17 04:50:38;;;;;;;16.25;9.20;;;;;;;;;;5030508;28;20032;-64
2022/04/17 04:53:03;;;;;;;16.98;9.02;;;;;;;;;;5015613;28;20034;-64
2022/04/17 04:55:29;;;;;;;18.95;9.32;;;;;;;;;;5035816;28;20068;-64
2022/04/17 04:57:54;;;;;;;18.52;9.13;;;;;;;;;;5042429;28;20097;-64
2022/04/17 05:00:20;;;;;;;17.08;9.05;;;;;;;;;;5030059;28;20070;-64
2022/04/17 05:02:45;;;;;;;14.40;8.63;;;;;;;;;;5039932;28;20033;-64
2022/04/17 05:05:11;;;;;;;13.98;8.77;;;;;;;;;;5037013;28;20040;-64
2022/04/17 05:07:37;;;;;;;19.67;9.73;;;;;;;;;;5023994;28;20033;-64
2022/04/17 05:10:04;;;;;;;18.50;9.68;;;;;;;;;;5024876;28;20491;-64
2022/04/17 05:12:30;;;;;;;15.77;9.60;;;;;;;;;;5022692;28;20475;-64
2022/04/17 05:14:55;;;;;;;17.77;10.25;;;;;;;;;;5025017;28;20091;-63
2022/04/17 05:17:20;;;;;;;19.55;9.95;;;;;;;;;;5019451;28;20468;-63
2022/04/17 05:19:46;;;;;;;18.98;11.15;;;;;;;;;;5028062;28;20155;-63
2022/04/17 05:22:16;;;;;;;18.45;10.25;;;;;;;;;;5011156;28;20049;-63
2022/04/17 05:24:45;;;;;;;18.55;10.02;;;;;;;;;;5046089;28;20029;-63
2022/04/17 05:27:12;;;;;;;16.55;9.98;;;;;;;;;;5033631;28;20466;-63
2022/04/17 05:29:37;;;;;;;14.35;9.50;;;;;;;;;;5039323;28;20047;-63
2022/04/17 05:32:03;;;;;;;17.67;9.65;;;;;;;;;;5027045;28;20117;-63
2022/04/17 05:34:28;;;;;;;16.50;9.90;;;;;;;;;;5032786;28;20056;-63
2022/04/17 05:36:54;;;;;;;16.50;9.35;;;;;;;;;;5011762;28;20498;-63
2022/04/17 05:39:19;;;;;;;18.00;9.02;;;;;;;;;;5011173;28;20030;-63
2022/04/17 05:41:45;;;;;;;14.40;8.63;;;;;;;;;;5034871;28;20025;-62
2022/04/17 05:44:11;;;;;;;17.15;9.50;;;;;;;;;;5033649;28;20025;-62
2022/04/17 05:46:39;;;;;;;14.77;9.20;;;;;;;;;;5039113;28;20509;-62
2022/04/17 05:49:06;;;;;;;15.75;9.05;;;;;;;;;;5031347;28;20028;-63
2022/04/17 05:51:36;;;;;;;15.77;9.63;;;;;;;;;;5033129;28;20025;-63
2022/04/17 05:54:06;;;;;;;15.90;9.32;;;;;;;;;;5028403;28;20040;-64
2022/04/17 05:56:32;;;;;;;14.52;9.13;;;;;;;;;;5037690;28;20033;-64
2022/04/17 05:58:57;;;;;;;15.23;9.35;;;;;;;;;;5046690;28;20051;-64
2022/04/17 06:01:24;;;;;;;19.35;9.13;;;;;;;;;;5034316;28;20041;-64
2022/04/17 06:03:50;;;;;;;15.77;8.77;;;;;;;;;;5036391;28;20487;-63
2022/04/17 06:06:18;;;;;;;17.35;9.15;;;;;;;;;;5035851;28;20033;-64
2022/04/17 06:08:43;;;;;;;17.42;8.63;;;;;;;;;;5046803;28;20497;-64
2022/04/17 06:11:09;;;;;;;15.13;9.23;;;;;;;;;;5045946;28;20033;-63
2022/04/17 06:13:34;;;;;;;15.73;9.02;;;;;;;;;;5043657;28;20033;-64
2022/04/17 06:15:59;;;;;;;15.63;9.38;;;;;;;;;;5035867;28;20040;-63
2022/04/17 06:18:25;;;;;;;15.50;9.15;;;;;;;;;;5048227;28;20149;-67
2022/04/17 06:20:50;;;;;;;15.02;8.95;;;;;;;;;;5038518;28;20044;-67
2022/04/17 06:23:16;;;;;;;16.67;9.02;;;;;;;;;;5040602;28;20459;-67
2022/04/17 06:25:41;;;;;;;15.05;8.90;;;;;;;;;;5047314;28;20029;-67
2022/04/17 06:28:07;;;;;;;13.38;8.93;;;;;;;;;;5048112;28;20039;-68
2022/04/17 06:30:32;;;;;;;15.15;9.35;;;;;;;;;;5049835;28;20044;-68
2022/04/17 06:32:58;;;;;;;15.40;9.00;;;;;;;;;;5042279;28;20124;-68
2022/04/17 06:35:23;;;;;;;16.10;9.23;;;;;;;;;;5039211;28;20911;-67
2022/04/17 06:37:52;;;;;;;14.73;9.32;;;;;;;;;;5047713;28;20032;-67
2022/04/17 06:40:25;;;;;;;13.70;8.80;;;;;;;;;;5046381;28;20041;-66
2022/04/17 06:42:53;;;;;;;14.63;9.38;;;;;;;;;;5047365;28;20040;-66
2022/04/17 06:45:19;;;;;;;15.73;9.15;;;;;;;;;;5013186;28;20037;-67
2022/04/17 06:47:45;;;;;;;17.58;9.02;;;;;;;;;;5046239;28;20386;-67
2022/04/17 06:50:11;;;;;;;15.50;9.20;;;;;;;;;;5037402;28;20119;-66
2022/04/17 06:52:37;;;;;;;13.85;8.93;;;;;;;;;;5053011;28;20037;-68
2022/04/17 06:55:03;;;;;;;14.57;8.70;;;;;;;;;;5029373;28;20089;-67
2022/04/17 06:57:30;;;;;;;15.18;8.93;;;;;;;;;;5034301;28;20387;-67
2022/04/17 06:59:56;;;;;;;14.77;8.68;;;;;;;;;;5049829;28;20037;-66
2022/04/17 07:02:21;;;;;;;12.68;8.27;;;;;;;;;;5046809;28;20756;-67
2022/04/17 07:04:46;;;;;;;12.75;8.10;;;;;;;;;;5047160;28;20037;-67
2022/04/17 07:07:12;;;;;;;15.32;8.93;;;;;;;;;;5049408;28;20038;-67
2022/04/17 07:09:37;;;;;;;12.43;8.00;;;;;;;;;;5053955;28;20074;-67
2022/04/17 07:12:03;;;;;;;12.05;7.53;;;;;;;;;;5036059;28;20111;-67
2022/04/17 07:14:28;;;;;;;11.07;5.90;;;;;;;;;;5042905;28;20165;-67
2022/04/17 07:16:54;;;;;;;12.10;6.00;;;;;;;;;;5053724;28;20029;-67
2022/04/17 07:19:20;;;;;;;9.25;6.25;;;;;;;;;;5048467;28;20033;-66
2022/04/17 07:21:46;;;;;;;12.52;5.90;;;;;;;;;;5040331;28;20139;-68
2022/04/17 07:24:11;;;;;;;9.40;5.80;;;;;;;;;;5050953;28;20461;-67
2022/04/17 07:26:37;;;;;;;9.55;5.28;;;;;;;;;;5051104;28;20470;-66
2022/04/17 07:29:03;;;;;;;9.35;5.70;;;;;;;;;;5039064;28;20042;-68
2022/04/17 07:31:29;;;;;;;10.05;5.50;;;;;;;;;;5041611;28;20111;-66
2022/04/17 07:33:54;;;;;;;13.57;5.40;;;;;;;;;;5050326;28;20060;-69
2022/04/17 07:36:20;;;;;;;10.25;5.80;;;;;;;;;;5050430;28;20484;-66
2022/04/17 07:38:46;;;;;;;6.93;4.72;;;;;;;;;;5047364;28;20025;-66
2022/04/17 07:41:11;;;;;;;7.93;4.75;;;;;;;;;;5045634;28;20468;-68
2022/04/17 07:43:37;;;;;;;7.53;5.03;;;;;;;;;;5037204;28;20025;-67
2022/04/17 07:46:02;;;;;;;8.05;5.03;;;;;;;;;;5039205;28;20034;-66
2022/04/17 07:48:27;;;;;;;8.38;4.70;;;;;;;;;;5045392;28;20091;-67
2022/04/17 07:50:54;;;;;;;8.98;4.50;;;;;;;;;;5042702;28;20068;-67
2022/04/17 07:53:20;;;;;;;8.10;4.47;;;;;;;;;;5045307;28;20069;-67
2022/04/17 07:55:45;;;;;;;8.00;4.22;;;;;;;;;;5045743;28;20056;-67
2022/04/17 08:01:14;;;;;;;7.50;4.13;;;;;;;;;;5045165;28;20044;-67
2022/04/17 08:06:05;;;;;;;7.50;4.25;;;;;;;;;;5051782;28;20025;-66
2022/04/17 08:08:31;;;;;;;8.93;4.32;;;;;;;;;;5049029;28;20053;-66
2022/04/17 08:10:57;;;;;;;6.47;4.25;;;;;;;;;;5036255;28;20040;-66
2022/04/17 08:13:23;;;;;;;6.53;4.00;;;;;;;;;;5040371;28;20124;-67
2022/04/17 08:15:50;;;;;;;8.10;4.20;;;;;;;;;;5035726;28;20133;-66
2022/04/17 08:18:15;;;;;;;6.70;4.25;;;;;;;;;;5020396;28;20033;-67
2022/04/17 08:20:41;;;;;;;11.90;4.20;;;;;;;;;;5049663;28;20029;-67
2022/04/17 08:23:07;;;;;;;6.70;4.10;;;;;;;;;;5042458;28;20132;-66
2022/04/17 08:25:35;;;;;;;8.40;4.32;;;;;;;;;;5030443;28;20025;-66
2022/04/17 08:28:02;;;;;;;6.47;3.70;;;;;;;;;;5046167;28;20437;-67
2022/04/17 08:30:31;;;;;;;6.30;3.65;;;;;;;;;;5033323;28;20036;-66
2022/04/17 08:33:01;;;;;;;6.97;3.92;;;;;;;;;;5024012;28;20067;-66
2022/04/17 08:35:27;;;;;;;5.07;3.58;;;;;;;;;;5034061;28;20050;-67
2022/04/17 08:37:52;;;;;;;5.40;3.53;;;;;;;;;;5048142;28;20127;-67
2022/04/17 08:40:19;;;;;;;5.43;3.67;;;;;;;;;;5042743;28;20033;-66
2022/04/17 08:42:45;;;;;;;6.70;3.58;;;;;;;;;;5043786;28;20098;-70
2022/04/17 08:45:12;;;;;;;7.28;3.90;;;;;;;;;;5033292;28;20065;-66
2022/04/17 08:47:39;;;;;;;7.28;3.83;;;;;;;;;;5031885;28;20053;-66
2022/04/17 08:50:16;;;;;;;6.28;3.45;;;;;;;;;;5032774;28;20466;-68
2022/04/17 08:52:46;;;;;;;5.90;3.90;;;;;;;;;;5032545;28;20120;-68
2022/04/17 08:55:12;;;;;;;7.22;3.97;;;;;;;;;;5031778;28;20029;-66
2022/04/17 08:57:38;;;;;;;6.22;3.83;;;;;;;;;;5031997;28;20041;-67
2022/04/17 09:00:08;;;;;;;7.28;4.20;;;;;;;;;;5029933;28;20393;-66
2022/04/17 09:02:34;;;;;;;6.75;4.07;;;;;;;;;;5031222;28;20021;-67
2022/04/17 09:05:04;;;;;;;6.70;4.13;;;;;;;;;;5030881;28;20051;-66
2022/04/17 09:07:40;;;;;;;8.13;4.20;;;;;;;;;;5030630;28;20033;-66
2022/04/17 09:10:06;;;;;;;6.22;3.90;;;;;;;;;;5014402;28;20033;-67
2022/04/17 09:12:32;;;;;;;7.65;3.97;;;;;;;;;;5031034;28;20033;-66
2022/04/17 09:14:57;;;;;;;7.43;4.15;;;;;;;;;;5030233;28;20044;-66
2022/04/17 09:17:33;;;;;;;6.47;4.18;;;;;;;;;;5030529;28;20026;-66
2022/04/17 09:19:59;;;;;;;7.30;4.00;;;;;;;;;;5032024;28;20033;-66
2022/04/17 09:22:25;;;;;;;6.57;4.40;;;;;;;;;;5029883;28;20091;-66
2022/04/17 09:24:51;;;;;;;7.80;4.35;;;;;;;;;;5031854;28;20025;-67
2022/04/17 09:27:17;;;;;;;10.75;4.53;;;;;;;;;;5030981;28;20025;-65
2022/04/17 09:29:42;;;;;;;8.00;4.90;;;;;;;;;;5029115;28;20463;-66
2022/04/17 09:32:12;;;;;;;8.50;4.45;;;;;;;;;;5030303;28;20442;-67
2022/04/17 09:34:45;;;;;;;8.35;4.63;;;;;;;;;;5029925;28;20037;-65
2022/04/17 09:37:21;;;;;;;7.00;4.18;;;;;;;;;;5031599;28;20033;-66
2022/04/17 09:39:47;;;;;;;7.22;4.40;;;;;;;;;;5031853;28;20033;-66
2022/04/17 09:42:19;;;;;;;7.20;4.20;;;;;;;;;;5031299;28;20029;-66
2022/04/17 09:44:46;;;;;;;7.32;4.40;;;;;;;;;;5029824;28;20673;-66
2022/04/17 09:47:18;;;;;;;7.55;4.38;;;;;;;;;;5031405;28;20036;-66
2022/04/17 09:50:09;;;;;;;7.68;4.50;;;;;;;;;;5031582;28;20061;-67
2022/04/17 09:52:45;;;;;;;9.55;4.70;;;;;;;;;;5029801;28;20274;-67
2022/04/17 09:55:11;;;;;;;7.43;4.43;;;;;;;;;;5031312;28;20403;-67
2022/04/17 09:57:38;;;;;;;6.20;4.22;;;;;;;;;;5030656;28;20030;-65
2022/04/17 10:00:15;;;;;;;6.88;4.32;;;;;;;;;;5028691;28;20038;-67
2022/04/17 10:02:44;;;;;;;7.20;4.35;;;;;;;;;;5031275;28;20026;-65
2022/04/17 10:05:12;;;;;;;5.68;3.63;;;;;;;;;;5031412;28;20034;-67
2022/04/17 10:07:39;;;;;;;6.63;3.97;;;;;;;;;;5030754;28;20037;-65
2022/04/17 10:10:06;;;;;;;6.50;3.90;;;;;;;;;;5031483;28;20026;-68
2022/04/17 10:12:35;;;;;;;7.03;3.70;;;;;;;;;;5030056;28;20506;-67
2022/04/17 10:15:06;;;;;;;7.53;4.25;;;;;;;;;;5029736;28;20034;-66
2022/04/17 10:17:33;;;;;;;7.00;3.80;;;;;;;;;;5031040;28;20026;-66
2022/04/17 10:20:03;;;;;;;6.32;4.13;;;;;;;;;;5034897;28;20061;-66
2022/04/17 10:22:34;;;;;;;6.50;4.38;;;;;;;;;;5032630;28;20140;-66
2022/04/17 10:25:02;;;;;;;7.78;4.20;;;;;;;;;;5034053;28;20144;-67
2022/04/17 10:27:37;;;;;;;5.22;3.45;;;;;;;;;;5033894;28;20113;-66
2022/04/17 10:30:02;;;;;;;7.25;3.50;;;;;;;;;;5033326;28;20044;-67
2022/04/17 10:32:58;;;;;;;7.03;3.67;;;;;;;;;;5032814;28;20037;-67
2022/04/17 10:35:39;;;;;;;7.32;3.58;;;;;;;;;;5034001;28;20029;-66
2022/04/17 10:38:16;;;;;;;4.90;3.22;;;;;;;;;;5034989;28;20040;-66
2022/04/17 10:40:55;;;;;;;6.50;3.83;;;;;;;;;;5034295;28;20383;-66
2022/04/17 10:43:20;;;;;;;6.32;3.58;;;;;;;;;;5032617;28;20383;-66
2022/04/17 10:46:09;;;;;;;5.07;3.17;;;;;;;;;;5033070;28;20040;-67
2022/04/17 10:48:50;;;;;;;5.95;3.58;;;;;;;;;;5032497;28;20021;-66
2022/04/17 10:51:18;;;;;;;4.18;3.00;;;;;;;;;;5034186;28;20025;-66
2022/04/17 10:54:01;;;;;;;4.68;3.00;;;;;;;;;;5033640;28;20622;-67
2022/04/17 10:56:27;;;;;;;4.53;2.88;;;;;;;;;;5032355;28;20033;-66
2022/04/17 10:58:54;;;;;;;4.93;2.83;;;;;;;;;;5032264;28;20029;-67
2022/04/17 11:01:41;;;;;;;4.90;2.88;;;;;;;;;;5033288;28;20030;-66
2022/04/17 11:04:19;;;;;;;4.63;2.95;;;;;;;;;;5034337;28;20495;-67
2022/04/17 11:06:45;;;;;;;5.40;2.72;;;;;;;;;;5034188;28;20035;-66
2022/04/17 11:09:18;;;;;;;4.05;2.72;;;;;;;;;;5032960;28;20056;-67
2022/04/17 11:11:45;;;;;;;5.22;2.70;;;;;;;;;;5033884;28;20112;-66
2022/04/17 11:14:16;;;;;;;5.70;3.17;;;;;;;;;;5029542;28;20095;-68
2022/04/17 11:16:52;;;;;;;3.95;2.85;;;;;;;;;;5013471;28;20033;-67
2022/04/17 11:19:21;;;;;;;3.95;2.70;;;;;;;;;;5014029;28;20033;-66
2022/04/17 11:21:52;;;;;;;5.18;2.92;;;;;;;;;;5014181;28;20057;-67
2022/04/17 11:24:19;;;;;;;4.70;2.50;;;;;;;;;;5029453;28;20034;-66
2022/04/17 11:26:52;;;;;;;4.80;2.90;;;;;;;;;;5014030;28;20101;-67
2022/04/17 11:29:35;;;;;;;5.93;3.30;;;;;;;;;;5013520;28;20076;-66
2022/04/17 11:32:01;;;;;;;3.90;2.80;;;;;;;;;;5014463;28;20033;-66
2022/04/17 11:34:52;;;;;;;4.68;2.90;;;;;;;;;;5011902;28;20029;-66
2022/04/17 11:37:28;;;;;;;3.85;2.50;;;;;;;;;;5013989;28;20034;-65
2022/04/17 11:39:55;;;;;;;4.57;2.45;;;;;;;;;;5012534;28;20472;-65
2022/04/17 11:42:21;;;;;;;4.40;3.10;;;;;;;;;;5013023;28;20021;-66
2022/04/17 11:44:49;;;;;;;5.32;2.83;;;;;;;;;;5027716;28;20040;-67
2022/04/17 11:47:16;;;;;;;4.47;2.70;;;;;;;;;;5032187;28;20037;-67
2022/04/17 11:49:42;;;;;;;6.45;2.88;;;;;;;;;;5032387;28;20101;-68
2022/04/17 11:52:15;;;;;;;4.07;3.05;;;;;;;;;;5033353;28;20151;-67
2022/04/17 11:54:42;;;;;;;5.78;3.05;;;;;;;;;;5032707;28;20253;-66
2022/04/17 11:57:10;;;;;;;4.25;2.78;;;;;;;;;;5032184;28;20376;-66
2022/04/17 11:59:50;;;;;;;5.07;2.70;;;;;;;;;;5030474;28;20022;-66
2022/04/17 12:02:18;;;;;;;3.95;2.85;;;;;;;;;;5033209;28;20375;-67
2022/04/17 12:04:44;;;;;;;4.13;2.60;;;;;;;;;;5032360;28;20471;-66
2022/04/17 12:07:11;;;;;;;4.00;2.92;;;;;;;;;;5033600;28;20033;-66
2022/04/17 12:09:37;;;;;;;5.82;3.20;;;;;;;;;;5032137;28;20116;-67
2022/04/17 12:12:09;;;;;;;3.90;2.80;;;;;;;;;;5032100;28;20113;-67
2022/04/17 12:14:35;;;;;;;3.88;2.70;;;;;;;;;;5030953;28;20033;-68
2022/04/17 12:17:00;;;;;;;6.45;3.17;;;;;;;;;;5032969;28;20034;-68
2022/04/17 12:19:25;;;;;;;4.18;2.97;;;;;;;;;;5031826;28;20037;-67
2022/04/17 12:21:52;;;;;;;5.60;3.10;;;;;;;;;;5032654;28;20052;-68
2022/04/17 12:24:18;;;;;;;4.78;3.30;;;;;;;;;;5031720;28;20033;-68
2022/04/17 12:26:45;;;;;;;4.18;2.92;;;;;;;;;;5030829;28;20109;-68
2022/04/17 12:29:11;;;;;;;5.47;3.15;;;;;;;;;;5029364;28;20037;-69
2022/04/17 12:31:37;;;;;;;6.05;3.10;;;;;;;;;;5022854;28;20036;-68
2022/04/17 12:34:08;;;;;;;5.78;3.70;;;;;;;;;;5011693;28;20076;-68
2022/04/17 12:36:34;;;;;;;6.03;3.38;;;;;;;;;;5011927;28;20029;-69
2022/04/17 12:39:02;;;;;;;5.18;3.33;;;;;;;;;;5012801;28;20026;-68
2022/04/17 12:41:29;;;;;;;5.00;3.20;;;;;;;;;;4993876;28;20429;-66
2022/04/17 12:43:55;;;;;;;5.70;3.20;;;;;;;;;;5023315;28;20034;-68
2022/04/17 12:46:28;;;;;;;4.53;3.17;;;;;;;;;;5030842;28;20029;-69
2022/04/17 12:49:04;;;;;;;4.95;3.28;;;;;;;;;;5030855;28;20044;-68
2022/04/17 12:51:29;;;;;;;5.20;3.40;;;;;;;;;;5031713;28;20025;-68
2022/04/17 12:53:55;;;;;;;5.05;3.45;;;;;;;;;;5032498;28;20087;-68
2022/04/17 12:56:25;;;;;;;5.47;3.55;;;;;;;;;;5031183;28;20029;-67
2022/04/17 12:58:55;;;;;;;5.70;3.47;;;;;;;;;;5028896;28;20041;-69
2022/04/17 13:01:23;;;;;;;5.10;3.67;;;;;;;;;;5031879;28;20065;-69
2022/04/17 13:03:49;;;;;;;6.25;4.10;;;;;;;;;;5030297;28;20029;-68
2022/04/17 13:06:22;;;;;;;5.90;3.22;;;;;;;;;;5032245;28;20032;-69
2022/04/17 13:09:08;;;;;;;5.00;3.40;;;;;;;;;;5031300;28;20033;-68
2022/04/17 13:11:38;;;;;;;5.35;3.60;;;;;;;;;;5030218;28;20029;-67
2022/04/17 13:14:04;;;;;;;5.07;3.20;;;;;;;;;;5029222;28;20407;-69
2022/04/17 13:16:31;;;;;;;5.90;3.78;;;;;;;;;;5031119;28;20068;-68
2022/04/17 13:18:57;;;;;;;5.72;3.63;;;;;;;;;;5031990;28;20095;-67
2022/04/17 13:21:22;;;;;;;9.00;3.60;;;;;;;;;;5031891;28;20050;-68
2022/04/17 13:23:48;;;;;;;5.47;3.65;;;;;;;;;;5031083;28;20382;-67
2022/04/17 13:26:15;;;;;;;5.60;3.20;;;;;;;;;;5031755;28;20052;-68
2022/04/17 13:28:40;;;;;;;4.97;3.22;;;;;;;;;;5029157;28;20095;-67
2022/04/17 13:31:06;;;;;;;5.85;3.45;;;;;;;;;;5032051;28;20463;-68
2022/04/17 13:33:31;;;;;;;5.53;3.83;;;;;;;;;;5030853;28;20030;-67
2022/04/17 13:35:57;;;;;;;6.30;4.18;;;;;;;;;;5031774;28;20029;-67
2022/04/17 13:38:23;;;;;;;8.65;4.20;;;;;;;;;;5031715;28;20033;-68
2022/04/17 13:40:48;;;;;;;7.18;3.97;;;;;;;;;;5030776;28;20045;-67
2022/04/17 13:43:14;;;;;;;4.72;3.38;;;;;;;;;;5029512;28;20128;-68
2022/04/17 13:45:39;;;;;;;5.75;3.60;;;;;;;;;;5029128;28;20487;-67
2022/04/17 13:48:07;;;;;;;5.30;3.75;;;;;;;;;;5031523;28;20026;-67
2022/04/17 13:50:35;;;;;;;5.38;3.88;;;;;;;;;;5030426;28;20037;-67
2022/04/17 13:53:02;;;;;;;5.90;3.65;;;;;;;;;;5032826;28;20044;-68
2022/04/17 13:55:28;;;;;;;6.55;4.30;;;;;;;;;;5033494;28;20041;-67
2022/04/17 13:57:54;;;;;;;7.97;4.13;;;;;;;;;;5033733;28;20075;-68
2022/04/17 14:00:19;;;;;;;4.97;3.33;;;;;;;;;;5034100;28;20025;-68
2022/04/17 14:02:45;;;;;;;4.93;3.20;;;;;;;;;;5034592;28;20464;-68
2022/04/17 14:05:11;;;;;;;4.32;2.70;;;;;;;;;;5035419;28;20029;-69
2022/04/17 14:07:37;;;;;;;4.60;3.05;;;;;;;;;;5034654;28;20041;-67
2022/04/17 14:10:04;;;;;;;4.85;3.10;;;;;;;;;;5034363;28;20487;-67
2022/04/17 14:12:29;;;;;;;4.55;2.83;;;;;;;;;;5032394;28;20387;-69
2022/04/17 14:14:56;;;;;;;5.82;3.20;;;;;;;;;;5015417;28;20034;-69
2022/04/17 14:17:22;;;;;;;5.28;2.97;;;;;;;;;;5014319;28;20433;-68
2022/04/17 14:19:47;;;;;;;5.45;2.90;;;;;;;;;;5014666;28;20033;-68
2022/04/17 14:22:13;;;;;;;4.22;2.72;;;;;;;;;;5015073;28;20046;-68
2022/04/17 14:24:39;;;;;;;5.43;3.20;;;;;;;;;;5013265;28;20034;-69
2022/04/17 14:27:04;;;;;;;4.18;2.78;;;;;;;;;;5016424;28;20033;-67
2022/04/17 14:29:31;;;;;;;4.20;2.92;;;;;;;;;;5033155;28;20044;-67
2022/04/17 14:31:56;;;;;;;4.85;3.10;;;;;;;;;;5034884;28;20040;-67
2022/04/17 14:34:21;;;;;;;4.47;3.00;;;;;;;;;;5034755;28;20030;-67
2022/04/17 14:36:47;;;;;;;4.20;2.97;;;;;;;;;;5032897;28;20029;-67
2022/04/17 14:39:12;;;;;;;5.15;3.03;;;;;;;;;;5034821;28;20032;-68
2022/04/17 14:41:39;;;;;;;4.65;3.30;;;;;;;;;;5033165;28;20037;-69
2022/04/17 14:44:05;;;;;;;4.22;3.20;;;;;;;;;;5031079;28;20030;-68
2022/04/17 14:46:31;;;;;;;5.57;3.10;;;;;;;;;;5034067;28;20041;-68
2022/04/17 14:48:56;;;;;;;3.95;2.90;;;;;;;;;;5034403;28;20117;-69
2022/04/17 14:51:22;;;;;;;4.40;2.95;;;;;;;;;;5034721;28;20041;-69
2022/04/17 14:53:49;;;;;;;5.70;3.42;;;;;;;;;;5019419;28;20061;-67
2022/04/17 14:56:18;;;;;;;4.40;3.30;;;;;;;;;;5013525;28;20029;-68